Nearby METAR Reports

 

KOXC - Oxford/Waterbury, Connecticut, USA
Distance from station: SE 8mi, 12km
Updated: Sun, 01-Mar-2015 6:55am EST
Overcast
Overcast
 Wind from calm
Wind: Calm
Temperature: 12°F , -11°C
Dew Point: -2°F , -19°C
Humidity: 52%
Barometer: 30.63 inHg , 1037.3 hPa
Clouds: Overcast
Visibility: 10 miles , 16 km
Cloud details: Overcast 8000 ft
2015/03/01 11:55 KOXC 011155Z 00000KT 10SM OVC080 M11/M19 A3063
KDXR - Danbury, Connecticut, USA
Distance from station: SW 19mi, 30km
Updated: Sun, 01-Mar-2015 6:53am EST
Mostly cloudy
Mostly cloudy
 Wind from calm
Wind: Calm
Temperature: 10°F , -12°C
Dew Point: 1°F , -17°C
Humidity: 67%
Barometer: 30.66 inHg , 1038.3 hPa
Clouds: Mostly cloudy
Visibility: 8 miles , 13 km
Cloud details: Mostly cloudy 8500 ft
2015/03/01 11:53 KDXR 011153Z AUTO 00000KT 8SM BKN085 M12/M17 A3066 RMK AO2 SLP391 T11221172 11122 21178 58002
 
KMMK - Meriden, Connecticut, USA
Distance from station: E 20mi, 33km
Updated: Sun, 01-Mar-2015 6:53am EST
Overcast
Overcast
 Wind from calm
Wind: Calm
Temperature: 10°F , -12°C
Dew Point: 3°F , -16°C
Humidity: 72%
Barometer: 30.69 inHg , 1039.3 hPa
Clouds: Overcast
Visibility: 7 miles , 11 km
Cloud details: Overcast 10000 ft
2015/03/01 11:53 KMMK 011153Z AUTO 00000KT 7SM OVC100 M12/M16 A3069 RMK AO2 SLP394 T11171156 11117 21172 50000 TSNO
KBDR - Bridgeport, Connecticut, USA
Distance from station: S 27mi, 44km
Updated: Sun, 01-Mar-2015 6:52am EST
Overcast
Overcast
 Wind from calm
Wind: Calm
Temperature: 18°F , -8°C
Dew Point: 7°F , -14°C
Humidity: 62%
Barometer: 30.69 inHg , 1039.3 hPa
Clouds: Overcast
Visibility: 10 miles , 16 km
Cloud details: Overcast 9500 ft
2015/03/01 11:52 KBDR 011152Z 00000KT 10SM OVC095 M08/M14 A3069 RMK AO2 SLP392 T10831144 11083 21111 51000
 
KHVN - New Haven/Tweed, Connecticut, USA
Distance from station: SE 27mi, 44km
Updated: Sun, 01-Mar-2015 6:53am EST
Overcast
Overcast
 Wind from calm
Wind: Calm
Temperature: 16°F , -9°C
Dew Point: 9°F , -13°C
Humidity: 73%
Barometer: 30.68 inHg , 1038.9 hPa
Clouds: Overcast
Visibility: 10 miles , 16 km
Cloud details: Overcast 10000 ft
2015/03/01 11:53 KHVN 011153Z 00000KT 10SM OVC100 M09/M13 A3068 RMK AO2 SLP389 I6000 T10941133 11094 21150 50001
KHFD - Hartford/Brainar, Connecticut, USA
Distance from station: ENE 32mi, 52km
Updated: Sun, 01-Mar-2015 6:53am EST
Overcast
Overcast
 Wind from calm
Wind: Calm
Temperature: 10°F , -12°C
Dew Point: 5°F , -15°C
Humidity: 79%
Barometer: 30.70 inHg , 1039.6 hPa
Clouds: Overcast
Visibility: 8 miles , 13 km
Cloud details: Overcast 8000 ft
2015/03/01 11:53 KHFD 011153Z 00000KT 8SM OVC080 M12/M15 A3070 RMK AO2 SLP395 I6000 T11221150 11122 21156 50000
 
KPOU - Poughkeepsie, New York, USA
Distance from station: W 35mi, 56km
Updated: Sun, 01-Mar-2015 6:53am EST
Overcast
Overcast
 Wind from calm
Wind: Calm
Temperature: 10°F , -12°C
Dew Point: 1°F , -17°C
Humidity: 67%
Barometer: 30.67 inHg , 1038.6 hPa
Clouds: Overcast
Visibility: 9 miles , 14 km
Cloud details: Overcast 9000 ft
2015/03/01 11:53 KPOU 011153Z 00000KT 9SM OVC090 M12/M17 A3067 RMK AO2 SLP385 T11221172 11122 21178 58004
KBDL - Windsor Locks, Connecticut, USA
Distance from station: NE 38mi, 62km
Updated: Sun, 01-Mar-2015 6:51am EST
Overcast
Overcast
 Wind from NE
Wind: NE 3 mph , 6 km/h
Temperature: 10°F , -12°C
Dew Point: 1°F , -17°C
Humidity: 67%
Barometer: 30.67 inHg , 1038.6 hPa
Clouds: Overcast
Visibility: 10 miles , 16 km
Cloud details: Mostly cloudy 9000 ft
Overcast 20000 ft
2015/03/01 11:51 KBDL 011151Z 04003KT 10SM BKN090 OVC200 M12/M17 A3067 RMK AO2 SLP390 4/022 T11171172 11117 21167 50001
 
KSNC - Chester, Connecticut, USA
Distance from station: ESE 39mi, 63km
Updated: Sun, 01-Mar-2015 7:15am EST
Partly cloudy
Partly cloudy
 Wind from calm
Wind: Calm
Temperature: 23°F , -5°C
Dew Point: 12°F , -11°C
Humidity: 63%
Barometer: 30.65 inHg , 1037.9 hPa
Clouds: Partly cloudy
Visibility: 10 miles , 16 km
Cloud details: Few Clouds 7000 ft
Partly cloudy 7500 ft
2015/03/01 12:15 KSNC 011215Z AUTO 00000KT 10SM FEW070 SCT075 M05/M11 A3065 RMK AO2
KHPN - White Plains, New York, USA
Distance from station: SW 42mi, 67km
Updated: Sun, 01-Mar-2015 6:56am EST
Mostly cloudy
Mostly cloudy
 Wind from calm
Wind: Calm
Temperature: 16°F , -9°C
Dew Point: 7°F , -14°C
Humidity: 67%
Barometer: 30.64 inHg , 1037.6 hPa
Clouds: Mostly cloudy
Visibility: 10 miles , 16 km
Cloud details: Mostly cloudy 7500 ft
2015/03/01 11:56 KHPN 011156Z 00000KT 10SM BKN075 M09/M14 A3064 RMK AO2 SLP389 T10941139 11094 21133 50000
 
KSWF - Newburgh/Stewart, New York, USA
Distance from station: W 45mi, 72km
Updated: Sun, 01-Mar-2015 6:45am EST
Mostly cloudy
Mostly cloudy
 Wind from calm
Wind: Calm
Temperature: 12°F , -11°C
Dew Point: 7°F , -14°C
Humidity: 79%
Barometer: 30.64 inHg , 1037.6 hPa
Clouds: Mostly cloudy
Visibility: 15 miles , 24 km
Cloud details: Mostly cloudy 6500 ft
2015/03/01 11:45 KSWF 011145Z 00000KT 15SM BKN065 M11/M14 A3064
KBAF - Westfield, Massachusetts, USA
Distance from station: NNE 50mi, 80km
Updated: Sun, 01-Mar-2015 6:53am EST
Overcast
Overcast
 Wind from calm
Wind: Calm
Temperature: 7°F , -14°C
Dew Point: -0°F , -18°C
Humidity: 72%
Barometer: 30.67 inHg , 1038.6 hPa
Clouds: Overcast
Visibility: 10 miles , 16 km
Cloud details: Overcast 9000 ft
2015/03/01 11:53 KBAF 011153Z 00000KT 10SM OVC090 M14/M18 A3067 RMK AO2 SLP397 I6000 T11391183 11139 21189 56001